Time;durP1;ratioP1;P1;durP2;ratioP2;P2;SDS_P1;SDS_P2;PMS_P1;PMS_P2;Temp;Humidity;BMP_temperature;BMP_pressure;BME280_temperature;BME280_humidity;BME280_pressure;Samples;Min_cycle;Max_cycle;Signal;HPM_P1;HPM_P2
2024/01/30 00:01:55;;;;;;;2.70;1.90;;;;;;;16.17;51.93;100109.50;105419;1261;65909;-35
2024/01/30 00:04:22;;;;;;;2.40;2.00;;;;;;;16.16;51.95;100106.68;105715;1257;72599;-34
2024/01/30 00:06:50;;;;;;;2.50;2.00;;;;;;;16.17;51.89;100105.05;105405;1258;61250;-34
2024/01/30 00:09:17;;;;;;;2.10;1.90;;;;;;;16.16;51.88;100105.49;105482;1255;61241;-36
2024/01/30 00:11:44;;;;;;;1.90;1.70;;;;;;;16.16;51.93;100105.33;105480;1257;74468;-35
2024/01/30 00:14:10;;;;;;;2.40;1.80;;;;;;;16.16;51.91;100100.73;105541;1254;65933;-35
2024/01/30 00:16:37;;;;;;;2.50;2.10;;;;;;;16.15;51.97;100102.96;105426;1254;72381;-35
2024/01/30 00:19:04;;;;;;;1.90;1.70;;;;;;;16.15;51.93;100103.83;105389;1258;61324;-34
2024/01/30 00:21:30;;;;;;;2.40;1.80;;;;;;;16.16;51.97;100105.55;105525;1257;61350;-34
2024/01/30 00:23:57;;;;;;;2.90;1.90;;;;;;;16.16;51.96;100102.20;105369;1259;74736;-36
2024/01/30 00:26:24;;;;;;;2.40;1.90;;;;;;;16.16;51.96;100100.14;105508;1260;64831;-37
2024/01/30 00:28:50;;;;;;;2.30;1.90;;;;;;;16.15;51.87;100097.50;105740;1257;72541;-36
2024/01/30 00:31:17;;;;;;;2.50;2.00;;;;;;;16.16;51.90;100095.33;105347;1259;61224;-36
2024/01/30 00:33:44;;;;;;;2.60;2.00;;;;;;;16.16;51.89;100093.83;105439;1257;61269;-34
2024/01/30 00:36:10;;;;;;;2.20;1.70;;;;;;;16.16;51.93;100090.08;105423;1256;74615;-37
2024/01/30 00:38:37;;;;;;;2.20;2.00;;;;;;;16.15;51.81;100082.57;105391;1259;65197;-35
2024/01/30 00:41:04;;;;;;;2.20;1.80;;;;;;;16.16;51.85;100080.20;105570;1257;72392;-34
2024/01/30 00:43:31;;;;;;;2.30;1.80;;;;;;;16.15;51.87;100075.06;105638;1259;61247;-34
2024/01/30 00:45:58;;;;;;;2.10;1.80;;;;;;;16.15;51.93;100072.36;105606;1257;61217;-34
2024/01/30 00:48:25;;;;;;;2.20;2.00;;;;;;;16.15;51.85;100069.87;105476;1255;74350;-35
2024/01/30 00:50:52;;;;;;;2.70;1.70;;;;;;;16.15;51.91;100067.16;105556;1259;66067;-35
2024/01/30 00:53:18;;;;;;;2.40;1.90;;;;;;;16.15;51.89;100068.09;105630;1258;72575;-35
2024/01/30 00:55:45;;;;;;;2.00;1.70;;;;;;;16.15;51.90;100063.43;105582;1261;61234;-34
2024/01/30 00:58:12;;;;;;;2.00;1.80;;;;;;;16.14;52.00;100062.79;105592;1256;61323;-35
2024/01/30 01:00:39;;;;;;;2.40;2.00;;;;;;;16.15;51.93;100057.66;105586;1259;75560;-35
2024/01/30 01:03:05;;;;;;;2.60;2.00;;;;;;;16.15;51.91;100057.11;105717;1257;64799;-34
2024/01/30 01:05:32;;;;;;;2.00;1.70;;;;;;;16.14;51.85;100053.92;105531;1254;72091;-35
2024/01/30 01:07:58;;;;;;;2.90;1.80;;;;;;;16.14;51.89;100056.14;105524;1258;61445;-34
2024/01/30 01:10:25;;;;;;;2.60;1.90;;;;;;;16.14;51.87;100057.16;105459;1258;61372;-35
2024/01/30 01:12:52;;;;;;;1.90;1.70;;;;;;;16.14;51.95;100061.00;105847;1254;74572;-35
2024/01/30 01:15:19;;;;;;;2.50;1.80;;;;;;;16.15;51.94;100061.60;105591;1258;64858;-34
2024/01/30 01:17:46;;;;;;;2.20;1.90;;;;;;;16.14;51.80;100060.61;105720;1257;73092;-34
2024/01/30 01:20:13;;;;;;;2.40;2.10;;;;;;;16.14;51.93;100064.02;105584;1260;61343;-36
2024/01/30 01:22:40;;;;;;;2.30;2.00;;;;;;;16.14;51.86;100061.00;105782;1257;61912;-36
2024/01/30 01:25:08;;;;;;;2.10;1.90;;;;;;;16.14;51.80;100057.77;105616;1259;74573;-36
2024/01/30 01:27:40;;;;;;;2.20;2.00;;;;;;;16.14;51.86;100050.02;105841;1259;65826;-36
2024/01/30 01:30:10;;;;;;;2.20;1.90;;;;;;;16.14;51.86;100050.02;105606;1257;72403;-37
2024/01/30 01:32:38;;;;;;;2.00;1.80;;;;;;;16.14;51.87;100049.86;105837;1259;62882;-36
2024/01/30 01:35:07;;;;;;;3.10;2.10;;;;;;;16.13;51.81;100052.46;105462;1257;61347;-36
2024/01/30 01:37:34;;;;;;;2.50;2.00;;;;;;;16.13;51.80;100050.36;105814;1256;74483;-35
2024/01/30 01:40:00;;;;;;;2.00;1.80;;;;;;;16.12;51.88;100041.70;105514;1259;61250;-34
2024/01/30 01:42:28;;;;;;;2.20;1.80;;;;;;;16.12;51.80;100043.17;105989;1254;72651;-35
2024/01/30 01:44:54;;;;;;;2.40;1.90;;;;;;;16.11;51.78;100039.01;105594;1259;61234;-35
2024/01/30 01:47:21;;;;;;;1.80;1.70;;;;;;;16.11;51.79;100038.20;105433;1257;61217;-34
2024/01/30 01:49:47;;;;;;;2.40;2.00;;;;;;;16.10;51.76;100041.34;105459;1257;74597;-34
2024/01/30 01:52:15;;;;;;;2.20;1.90;;;;;;;16.10;51.80;100041.98;105486;1260;64889;-34
2024/01/30 01:54:42;;;;;;;2.60;2.00;;;;;;;16.09;51.73;100041.17;105744;1259;71468;-35
2024/01/30 01:57:09;;;;;;;2.00;1.80;;;;;;;16.08;51.75;100042.06;105530;1259;61253;-34
2024/01/30 01:59:35;;;;;;;2.10;1.90;;;;;;;16.08;51.71;100038.71;105557;1254;61272;-35
2024/01/30 02:02:02;;;;;;;3.10;1.90;;;;;;;16.08;51.68;100035.56;105287;1260;74582;-36
2024/01/30 02:04:29;;;;;;;1.90;1.80;;;;;;;16.06;51.74;100042.05;105746;1256;65157;-37
2024/01/30 02:06:56;;;;;;;2.20;2.00;;;;;;;16.06;51.77;100045.46;105711;1257;72378;-35
2024/01/30 02:09:22;;;;;;;2.70;1.90;;;;;;;16.06;51.74;100045.09;105599;1259;61266;-35
2024/01/30 02:11:49;;;;;;;1.90;1.70;;;;;;;16.05;51.74;100039.95;105870;1254;61339;-35
2024/01/30 02:14:16;;;;;;;2.60;2.00;;;;;;;16.05;51.75;100037.63;105462;1260;74659;-35
2024/01/30 02:16:42;;;;;;;5.10;1.90;;;;;;;16.04;51.72;100042.23;105553;1257;65815;-35
2024/01/30 02:19:09;;;;;;;2.10;1.70;;;;;;;16.04;51.76;100036.44;105913;1254;72552;-35
2024/01/30 02:21:36;;;;;;;1.60;1.50;;;;;;;16.04;51.76;100032.34;105679;1257;61256;-34
2024/01/30 02:24:03;;;;;;;2.10;1.90;;;;;;;16.05;51.71;100031.73;105700;1254;61387;-33
2024/01/30 02:26:30;;;;;;;2.10;1.90;;;;;;;16.04;51.71;100024.39;105789;1254;73502;-33
2024/01/30 02:28:56;;;;;;;2.80;2.10;;;;;;;16.05;51.80;100027.41;105458;1259;66443;-35
2024/01/30 02:31:25;;;;;;;2.50;1.90;;;;;;;16.05;51.68;100027.41;105554;1260;72455;-35
2024/01/30 02:33:51;;;;;;;3.00;1.90;;;;;;;16.04;51.76;100027.30;105619;1259;61291;-35
2024/01/30 02:36:18;;;;;;;2.70;2.20;;;;;;;16.04;51.81;100028.60;105408;1254;61324;-34
2024/01/30 02:38:46;;;;;;;2.10;1.90;;;;;;;16.05;51.69;100025.41;105581;1260;74412;-35
2024/01/30 02:41:13;;;;;;;1.90;1.70;;;;;;;16.05;51.77;100026.45;105678;1254;65508;-35
2024/01/30 02:43:39;;;;;;;2.40;1.90;;;;;;;16.05;51.71;100025.95;105709;1254;72514;-33
2024/01/30 02:46:06;;;;;;;1.90;1.70;;;;;;;16.05;51.75;100023.20;105439;1257;61227;-34
2024/01/30 02:48:32;;;;;;;2.20;1.90;;;;;;;16.05;51.79;100024.92;105563;1254;61346;-35
2024/01/30 02:50:59;;;;;;;2.90;1.90;;;;;;;16.06;51.81;100023.32;105481;1254;74613;-35
2024/01/30 02:53:26;;;;;;;1.90;1.70;;;;;;;16.06;51.77;100021.41;105490;1257;65945;-35
2024/01/30 02:55:53;;;;;;;2.90;1.90;;;;;;;16.06;51.82;100018.50;105881;1254;72650;-35
2024/01/30 02:58:19;;;;;;;2.30;2.10;;;;;;;16.06;51.79;100017.56;105651;1260;61265;-34
2024/01/30 03:00:46;;;;;;;2.10;1.80;;;;;;;16.06;51.82;100016.48;105464;1260;61279;-34
2024/01/30 03:03:13;;;;;;;2.50;1.90;;;;;;;16.06;51.68;100019.02;105776;1254;74692;-35
2024/01/30 03:05:40;;;;;;;2.10;1.80;;;;;;;16.07;51.72;100022.09;105515;1257;65903;-33
2024/01/30 03:08:06;;;;;;;1.90;1.70;;;;;;;16.07;51.79;100017.08;105512;1254;72567;-36
2024/01/30 03:10:33;;;;;;;1.70;1.60;;;;;;;16.07;51.66;100014.37;105499;1260;61385;-36
2024/01/30 03:13:00;;;;;;;3.10;2.10;;;;;;;16.07;51.63;100011.79;105477;1258;61269;-35
2024/01/30 03:15:26;;;;;;;2.40;1.90;;;;;;;16.08;51.70;100013.52;105488;1254;74497;-35
2024/01/30 03:17:53;;;;;;;2.40;1.90;;;;;;;16.08;51.75;100020.76;105529;1259;65641;-36
2024/01/30 03:20:20;;;;;;;2.50;2.10;;;;;;;16.08;51.74;100016.32;105661;1254;72424;-35
2024/01/30 03:22:47;;;;;;;1.90;1.70;;;;;;;16.08;51.77;100017.25;105621;1258;61372;-35
2024/01/30 03:25:13;;;;;;;2.40;1.80;;;;;;;16.08;51.68;100014.05;105686;1254;61359;-35
2024/01/30 03:27:40;;;;;;;2.10;1.90;;;;;;;16.08;51.74;100012.59;105794;1254;74411;-35
2024/01/30 03:30:07;;;;;;;3.10;2.20;;;;;;;16.08;51.73;100014.16;105444;1260;65890;-35
2024/01/30 03:32:34;;;;;;;1.90;1.70;;;;;;;16.08;51.70;100011.67;106013;1254;72396;-35
2024/01/30 03:35:01;;;;;;;2.00;1.80;;;;;;;16.09;51.75;100013.88;105646;1259;61269;-34
2024/01/30 03:37:28;;;;;;;2.00;1.80;;;;;;;16.09;51.71;100010.73;105974;1258;61138;-35
2024/01/30 03:39:55;;;;;;;1.70;1.60;;;;;;;16.09;51.68;100010.09;105803;1259;75016;-36
2024/01/30 03:42:22;;;;;;;2.90;2.20;;;;;;;16.09;51.69;100009.40;106267;1256;66010;-34
2024/01/30 03:44:51;;;;;;;2.10;1.90;;;;;;;16.09;51.67;100006.20;105682;1254;72472;-34
2024/01/30 03:47:18;;;;;;;2.90;1.90;;;;;;;16.09;51.62;100006.04;105614;1259;61234;-34
2024/01/30 03:49:45;;;;;;;2.20;2.00;;;;;;;16.09;51.63;100003.02;105428;1254;61273;-35
2024/01/30 03:52:11;;;;;;;2.20;1.90;;;;;;;16.09;51.71;100006.58;105500;1254;74501;-35
2024/01/30 03:54:38;;;;;;;2.30;1.80;;;;;;;16.10;51.69;100003.83;105489;1259;66211;-35
2024/01/30 03:57:05;;;;;;;2.40;1.90;;;;;;;16.09;51.65;100000.64;105768;1254;72636;-35
2024/01/30 03:59:32;;;;;;;2.10;1.90;;;;;;;16.09;51.64;99999.88;105491;1259;61257;-34
2024/01/30 04:01:59;;;;;;;2.60;2.30;;;;;;;16.09;51.65;99995.17;105645;1253;61313;-34
2024/01/30 04:04:26;;;;;;;2.20;1.70;;;;;;;16.09;51.62;99989.27;105557;1259;74544;-35
2024/01/30 04:06:53;;;;;;;2.30;2.10;;;;;;;16.09;51.61;99992.63;105467;1257;66204;-35
2024/01/30 04:09:20;;;;;;;2.40;2.10;;;;;;;16.09;51.57;99986.41;105362;1258;72649;-36
2024/01/30 04:11:46;;;;;;;3.40;1.90;;;;;;;16.09;51.67;99986.52;105585;1258;61203;-36
2024/01/30 04:14:13;;;;;;;2.60;2.10;;;;;;;16.10;51.66;99985.71;105561;1254;61324;-35
2024/01/30 04:16:40;;;;;;;2.00;1.80;;;;;;;16.10;51.57;99986.84;105678;1259;73721;-34
2024/01/30 04:19:06;;;;;;;3.00;2.00;;;;;;;16.10;51.64;99985.55;105635;1259;66113;-34
2024/01/30 04:21:33;;;;;;;2.40;1.90;;;;;;;16.10;51.63;99987.39;105745;1254;72598;-35
2024/01/30 04:24:00;;;;;;;2.20;2.00;;;;;;;16.10;51.60;99988.25;105600;1257;61218;-34
2024/01/30 04:26:26;;;;;;;2.50;1.90;;;;;;;16.10;51.58;99987.38;105478;1254;61263;-34
2024/01/30 04:28:53;;;;;;;2.40;2.20;;;;;;;16.11;51.60;99985.44;105479;1254;74526;-35
2024/01/30 04:31:20;;;;;;;2.30;2.10;;;;;;;16.10;51.56;99983.44;105481;1257;65602;-33
2024/01/30 04:33:46;;;;;;;2.30;1.90;;;;;;;16.10;51.51;99979.44;105660;1254;72648;-36
2024/01/30 04:36:13;;;;;;;2.00;1.80;;;;;;;16.09;51.58;99977.33;105642;1258;61800;-35
2024/01/30 04:38:41;;;;;;;2.30;2.10;;;;;;;16.10;51.58;99979.06;105711;1254;61272;-34
2024/01/30 04:41:07;;;;;;;2.00;1.80;;;;;;;16.10;51.56;99975.98;105599;1259;74468;-34
2024/01/30 04:43:34;;;;;;;2.50;2.00;;;;;;;16.10;51.54;99974.41;105639;1258;65021;-34
2024/01/30 04:46:01;;;;;;;2.40;1.80;;;;;;;16.10;51.54;99972.08;105681;1254;72380;-35
2024/01/30 04:48:28;;;;;;;2.30;2.00;;;;;;;16.10;51.50;99977.93;105856;1258;61224;-34
2024/01/30 04:50:55;;;;;;;2.00;1.80;;;;;;;16.10;51.59;99980.25;105458;1254;61413;-34
2024/01/30 04:53:22;;;;;;;2.00;1.80;;;;;;;16.10;51.55;99976.90;105660;1254;74424;-34
2024/01/30 04:55:49;;;;;;;2.10;1.90;;;;;;;16.10;51.55;99974.35;105341;1259;66061;-35
2024/01/30 04:58:16;;;;;;;2.20;2.00;;;;;;;16.10;51.60;99972.25;105454;1257;72583;-35
2024/01/30 05:00:42;;;;;;;2.10;1.90;;;;;;;16.10;51.51;99973.11;105534;1259;61215;-34
2024/01/30 05:03:09;;;;;;;2.50;2.00;;;;;;;16.10;51.54;99972.57;105537;1254;61250;-35
2024/01/30 05:05:36;;;;;;;2.20;2.00;;;;;;;16.10;51.52;99975.92;105553;1259;74468;-35
2024/01/30 05:08:04;;;;;;;2.20;1.90;;;;;;;16.10;51.40;99976.63;105465;1259;66084;-35
2024/01/30 05:10:30;;;;;;;2.30;2.00;;;;;;;16.11;51.46;99977.27;105566;1257;72418;-34
2024/01/30 05:12:57;;;;;;;2.10;1.90;;;;;;;16.10;51.49;99979.34;105907;1260;61343;-35
2024/01/30 05:15:24;;;;;;;2.20;2.00;;;;;;;16.10;51.45;99979.86;105619;1254;61277;-33
2024/01/30 05:17:50;;;;;;;2.60;2.30;;;;;;;16.11;51.46;99980.58;105556;1254;74581;-36
2024/01/30 05:20:17;;;;;;;2.30;2.10;;;;;;;16.10;51.48;99980.64;105393;1257;64819;-35
2024/01/30 05:22:45;;;;;;;2.40;2.20;;;;;;;16.10;51.44;99979.98;105405;1254;72552;-35
2024/01/30 05:25:14;;;;;;;2.10;1.80;;;;;;;16.11;51.41;99979.34;105657;1259;61226;-35
2024/01/30 05:27:41;;;;;;;2.50;2.10;;;;;;;16.10;51.47;99980.48;105759;1257;61217;-35
2024/01/30 05:30:09;;;;;;;3.10;2.30;;;;;;;16.11;51.41;99980.20;105634;1257;73451;-35
2024/01/30 05:32:35;;;;;;;2.40;2.10;;;;;;;16.10;51.46;99982.74;105638;1257;65611;-34
2024/01/30 05:35:03;;;;;;;2.40;2.10;;;;;;;16.10;51.42;99980.27;105624;1254;72583;-35
2024/01/30 05:37:29;;;;;;;2.50;2.30;;;;;;;16.10;51.48;99979.02;105502;1254;61262;-34
2024/01/30 05:39:57;;;;;;;2.30;2.10;;;;;;;16.10;51.41;99982.79;105779;1254;61323;-35
2024/01/30 05:42:25;;;;;;;3.00;2.00;;;;;;;16.10;51.42;99983.86;105505;1257;74614;-35
2024/01/30 05:44:52;;;;;;;3.00;2.40;;;;;;;16.10;51.52;99981.50;105896;1256;66097;-35
2024/01/30 05:47:18;;;;;;;2.70;2.30;;;;;;;16.11;51.41;99983.98;105604;1254;72548;-34
2024/01/30 05:49:45;;;;;;;2.90;2.50;;;;;;;16.10;51.37;99975.86;105412;1259;61199;-35
2024/01/30 05:52:12;;;;;;;3.20;2.40;;;;;;;16.10;51.40;99971.44;105471;1257;61346;-35
2024/01/30 05:54:38;;;;;;;2.60;2.10;;;;;;;16.10;51.36;99967.06;105649;1254;73409;-35
2024/01/30 05:57:05;;;;;;;2.40;2.20;;;;;;;16.11;51.33;99968.03;105629;1258;65970;-34
2024/01/30 05:59:32;;;;;;;2.30;2.10;;;;;;;16.10;51.34;99967.27;105541;1254;72579;-35
2024/01/30 06:01:58;;;;;;;2.30;2.10;;;;;;;16.11;51.32;99970.63;105499;1259;61263;-34
2024/01/30 06:04:25;;;;;;;3.00;2.50;;;;;;;16.10;51.41;99969.77;105479;1254;61695;-34
2024/01/30 06:06:52;;;;;;;3.00;2.40;;;;;;;16.11;51.36;99973.86;105525;1256;74418;-34
2024/01/30 06:09:19;;;;;;;2.40;2.10;;;;;;;16.11;51.33;99972.95;105786;1258;66077;-36
2024/01/30 06:11:45;;;;;;;2.60;2.10;;;;;;;16.11;51.30;99976.89;105360;1254;71876;-35
2024/01/30 06:14:12;;;;;;;2.60;2.20;;;;;;;16.11;51.37;99975.59;105600;1257;61257;-35
2024/01/30 06:16:39;;;;;;;2.20;2.00;;;;;;;16.11;51.33;99976.02;105561;1256;61228;-35
2024/01/30 06:19:06;;;;;;;2.70;2.50;;;;;;;16.11;51.35;99976.99;105488;1254;74490;-34
2024/01/30 06:21:36;;;;;;;3.80;2.40;;;;;;;16.11;51.36;99976.41;105540;1258;64996;-33
2024/01/30 06:24:03;;;;;;;2.50;2.30;;;;;;;16.11;51.35;99980.63;105408;1257;72422;-35
2024/01/30 06:26:29;;;;;;;3.20;2.50;;;;;;;16.11;51.39;99979.53;105440;1259;61336;-34
2024/01/30 06:28:56;;;;;;;2.90;2.50;;;;;;;16.12;51.34;99977.43;105407;1254;61372;-34
2024/01/30 06:31:23;;;;;;;2.60;2.40;;;;;;;16.12;51.30;99975.97;105435;1254;74775;-34
2024/01/30 06:33:50;;;;;;;2.60;2.30;;;;;;;16.12;51.36;99978.72;105421;1257;67232;-35
2024/01/30 06:36:17;;;;;;;2.50;2.30;;;;;;;16.13;51.31;99976.92;105614;1259;73730;-34
2024/01/30 06:38:44;;;;;;;4.50;2.40;;;;;;;16.13;51.32;99981.84;106490;1256;61174;-35
2024/01/30 06:41:10;;;;;;;2.80;2.30;;;;;;;16.14;51.30;99983.03;105372;1257;61253;-35
2024/01/30 06:43:37;;;;;;;3.00;2.30;;;;;;;16.14;51.28;99987.68;105341;1254;74468;-35
2024/01/30 06:46:04;;;;;;;5.40;2.40;;;;;;;16.14;51.36;99984.77;105443;1258;64832;-34
2024/01/30 06:48:30;;;;;;;4.20;2.50;;;;;;;16.15;51.27;99981.91;105412;1254;72486;-34
2024/01/30 06:50:58;;;;;;;4.80;2.70;;;;;;;16.15;51.42;99977.52;105531;1258;61241;-33
2024/01/30 06:53:26;;;;;;;2.90;2.50;;;;;;;16.16;51.33;99977.23;107579;1256;61865;-34
2024/01/30 06:55:53;;;;;;;3.00;2.70;;;;;;;16.16;51.35;99976.59;105405;1257;74378;-31
2024/01/30 06:58:19;;;;;;;3.00;2.60;;;;;;;16.18;51.38;99976.76;105747;1257;65829;-35
2024/01/30 07:00:46;;;;;;;3.50;2.50;;;;;;;16.17;51.28;99975.83;105422;1254;72571;-33
2024/01/30 07:03:13;;;;;;;3.00;2.70;;;;;;;16.18;51.36;99977.18;105391;1259;61240;-34
2024/01/30 07:05:40;;;;;;;3.50;2.60;;;;;;;16.18;51.34;99977.27;105388;1257;61234;-32
2024/01/30 07:08:07;;;;;;;3.60;2.70;;;;;;;16.20;51.25;99978.68;105451;1255;73705;-34
2024/01/30 07:10:34;;;;;;;3.80;2.80;;;;;;;16.20;51.27;99976.45;105744;1256;64789;-34
2024/01/30 07:13:05;;;;;;;3.50;2.70;;;;;;;16.20;51.24;99978.71;105418;1254;72409;-34
2024/01/30 07:15:31;;;;;;;3.00;2.70;;;;;;;16.21;51.16;99983.11;105471;1260;61207;-33
2024/01/30 07:17:58;;;;;;;3.50;2.90;;;;;;;16.22;51.26;99979.23;105437;1256;61279;-33
2024/01/30 07:20:25;;;;;;;3.80;2.80;;;;;;;16.21;51.23;99977.11;105387;1259;74485;-34
2024/01/30 07:22:52;;;;;;;4.00;2.60;;;;;;;16.22;51.17;99981.48;105388;1259;65252;-34
2024/01/30 07:25:19;;;;;;;2.80;2.40;;;;;;;16.23;51.25;99982.02;105650;1253;72014;-34
2024/01/30 07:27:45;;;;;;;3.20;2.40;;;;;;;16.23;51.27;99982.33;105364;1259;61896;-39
2024/01/30 07:30:12;;;;;;;5.70;3.00;;;;;;;16.25;51.47;99981.30;105549;1257;61225;-41
2024/01/30 07:32:39;;;;;;;3.40;3.10;;;;;;;16.27;51.59;99982.09;105323;1254;74446;-41
2024/01/30 07:35:07;;;;;;;4.30;3.40;;;;;;;16.32;51.69;99983.27;105431;1259;65670;-40
2024/01/30 07:37:35;;;;;;;4.90;3.30;;;;;;;16.39;52.41;99984.02;105935;1254;72619;-40
2024/01/30 07:40:03;;;;;;;5.40;3.50;;;;;;;16.47;52.78;99979.16;105348;1259;61264;-42
2024/01/30 07:42:31;;;;;;;8.70;3.10;;;;;;;16.55;52.92;99975.41;105976;1254;61236;-39
2024/01/30 07:44:58;;;;;;;3.80;3.30;;;;;;;16.62;52.93;99971.94;105481;1255;74363;-40
2024/01/30 07:47:25;;;;;;;6.10;3.10;;;;;;;16.69;52.84;99974.88;105238;1259;66230;-40
2024/01/30 07:49:52;;;;;;;3.70;3.40;;;;;;;16.74;52.78;99972.99;105471;1257;72593;-39
2024/01/30 07:52:19;;;;;;;5.40;3.00;;;;;;;16.79;52.61;99973.83;105514;1259;61344;-41
2024/01/30 07:54:46;;;;;;;5.10;3.20;;;;;;;16.82;52.63;99971.30;105532;1254;61320;-37
2024/01/30 07:57:13;;;;;;;6.80;2.80;;;;;;;16.86;52.77;99971.55;105644;1256;75805;-37
2024/01/30 07:59:41;;;;;;;4.20;3.40;;;;;;;16.91;52.94;99965.38;105316;1259;66197;-38
2024/01/30 08:02:08;;;;;;;3.60;3.30;;;;;;;16.94;53.05;99965.73;105140;1257;72712;-35
2024/01/30 08:04:35;;;;;;;5.80;3.40;;;;;;;16.97;52.97;99966.20;107666;1256;61262;-35
2024/01/30 08:07:02;;;;;;;4.60;2.80;;;;;;;16.98;53.01;99969.65;105305;1254;61235;-37
2024/01/30 08:09:29;;;;;;;4.40;3.10;;;;;;;17.00;52.95;99970.67;105313;1254;75050;-36
2024/01/30 08:11:56;;;;;;;7.00;3.10;;;;;;;17.00;52.88;99966.81;105482;1258;67171;-36
2024/01/30 08:14:23;;;;;;;4.10;3.00;;;;;;;17.00;52.76;99966.33;105468;1254;72592;-37
2024/01/30 08:16:49;;;;;;;4.00;3.30;;;;;;;16.99;52.67;99967.58;105630;1257;61333;-36
2024/01/30 08:19:16;;;;;;;4.00;3.10;;;;;;;16.98;52.57;99965.11;105422;1254;61294;-37
2024/01/30 08:21:43;;;;;;;3.70;3.00;;;;;;;16.97;52.50;99963.65;105444;1259;74617;-37
2024/01/30 08:24:09;;;;;;;4.70;3.20;;;;;;;16.95;52.40;99960.15;105363;1259;65992;-37
2024/01/30 08:26:36;;;;;;;3.70;2.90;;;;;;;16.95;52.38;99962.59;105318;1256;73704;-36
2024/01/30 08:29:03;;;;;;;3.50;3.20;;;;;;;16.93;52.26;99962.11;105402;1259;61210;-36
2024/01/30 08:31:31;;;;;;;5.70;3.00;;;;;;;16.92;52.29;99960.34;105392;1256;61248;-36
2024/01/30 08:33:58;;;;;;;4.00;2.80;;;;;;;16.92;52.32;99961.36;105293;1255;74515;-36
2024/01/30 08:36:25;;;;;;;5.40;3.30;;;;;;;16.91;52.35;99959.17;105602;1258;65847;-36
2024/01/30 08:38:52;;;;;;;4.90;3.40;;;;;;;16.91;52.35;99955.81;105260;1257;72458;-37
2024/01/30 08:41:25;;;;;;;4.60;3.00;;;;;;;16.91;52.46;99955.82;105450;1259;61318;-36
2024/01/30 08:43:52;;;;;;;4.00;3.10;;;;;;;16.91;52.42;99950.88;105454;1257;62042;-38
2024/01/30 08:46:20;;;;;;;16.90;3.90;;;;;;;16.91;52.44;99947.95;105754;1255;74510;-39
2024/01/30 08:48:47;;;;;;;6.40;3.90;;;;;;;16.91;52.42;99944.11;105231;1259;66192;-38
2024/01/30 08:51:15;;;;;;;4.40;3.70;;;;;;;16.93;52.15;99947.77;105826;1258;73358;-39
2024/01/30 08:53:42;;;;;;;4.70;3.80;;;;;;;16.94;51.93;99949.55;105547;1257;61878;-37
2024/01/30 08:56:08;;;;;;;10.20;4.70;;;;;;;16.95;51.64;99950.13;105345;1254;61342;-39
2024/01/30 08:58:35;;;;;;;5.60;4.10;;;;;;;16.95;51.43;99949.48;105482;1259;75162;-39
2024/01/30 09:01:03;;;;;;;6.30;4.40;;;;;;;16.97;51.52;99948.98;105392;1259;65613;-39
2024/01/30 09:03:30;;;;;;;5.20;4.30;;;;;;;16.99;51.55;99948.64;105309;1254;72760;-38
2024/01/30 09:05:57;;;;;;;4.70;4.10;;;;;;;17.01;51.70;99946.94;105416;1257;61423;-36
2024/01/30 09:08:24;;;;;;;12.20;4.30;;;;;;;17.05;51.81;99943.77;105516;1254;61368;-39
2024/01/30 09:10:50;;;;;;;6.40;4.30;;;;;;;17.08;51.89;99937.34;105402;1257;75489;-40
2024/01/30 09:13:17;;;;;;;5.40;4.40;;;;;;;17.12;51.83;99935.52;105453;1258;67302;-38
2024/01/30 09:15:44;;;;;;;4.50;4.10;;;;;;;17.16;51.86;99935.86;105324;1255;72617;-40
2024/01/30 09:18:11;;;;;;;6.20;4.30;;;;;;;17.19;51.83;99934.20;105395;1259;61433;-39
2024/01/30 09:20:38;;;;;;;6.60;4.30;;;;;;;17.23;51.85;99937.95;105559;1254;61247;-38
2024/01/30 09:23:04;;;;;;;5.70;4.10;;;;;;;17.26;51.75;99939.54;105655;1259;75657;-38
2024/01/30 09:25:33;;;;;;;7.00;4.20;;;;;;;17.30;51.69;99940.65;105448;1258;66049;-37
2024/01/30 09:28:01;;;;;;;4.90;4.40;;;;;;;17.32;51.67;99935.64;105264;1257;73956;-38
2024/01/30 09:30:29;;;;;;;9.30;4.30;;;;;;;17.35;51.59;99938.14;106067;1257;61527;-38
2024/01/30 09:32:55;;;;;;;6.80;4.30;;;;;;;17.38;51.57;99938.77;109235;1254;59030;-39
2024/01/30 09:35:22;;;;;;;6.80;4.50;;;;;;;17.40;51.47;99935.77;105956;1254;73973;-38
2024/01/30 09:37:49;;;;;;;5.80;4.20;;;;;;;17.43;51.43;99931.07;105347;1259;66292;-38
2024/01/30 09:40:18;;;;;;;5.80;4.20;;;;;;;17.45;51.36;99932.55;105461;1259;72437;-38
2024/01/30 09:42:47;;;;;;;6.10;4.70;;;;;;;17.48;51.32;99927.77;105534;1259;61317;-38
2024/01/30 09:45:14;;;;;;;8.40;4.50;;;;;;;17.50;51.25;99927.63;105590;1259;61726;-37
2024/01/30 09:47:42;;;;;;;8.40;4.20;;;;;;;17.51;51.17;99924.27;105566;1255;74514;-38
2024/01/30 09:50:09;;;;;;;5.30;4.00;;;;;;;17.54;51.04;99920.64;105358;1259;66258;-37
2024/01/30 09:52:37;;;;;;;6.30;3.90;;;;;;;17.56;51.02;99918.48;105729;1254;73002;-39
2024/01/30 09:55:04;;;;;;;6.30;4.30;;;;;;;17.58;51.09;99915.30;105383;1259;61270;-35
2024/01/30 09:57:31;;;;;;;6.20;4.20;;;;;;;17.61;51.14;99914.04;105854;1254;61345;-36
2024/01/30 09:59:58;;;;;;;5.80;3.90;;;;;;;17.64;51.23;99910.86;105672;1255;75581;-36
2024/01/30 10:02:25;;;;;;;6.00;3.90;;;;;;;17.65;51.22;99906.01;105317;1258;66342;-37
2024/01/30 10:04:52;;;;;;;6.60;4.10;;;;;;;17.67;51.26;99906.48;105306;1257;71665;-36
2024/01/30 10:07:19;;;;;;;5.40;4.20;;;;;;;17.68;51.25;99907.06;105286;1254;61144;-36
2024/01/30 10:09:46;;;;;;;6.10;3.80;;;;;;;17.69;51.26;99906.67;105472;1254;61268;-37
2024/01/30 10:12:13;;;;;;;6.50;4.10;;;;;;;17.70;51.22;99904.55;105682;1258;75624;-36
2024/01/30 10:14:40;;;;;;;5.40;3.80;;;;;;;17.71;51.28;99901.59;105353;1260;65966;-35
2024/01/30 10:17:10;;;;;;;5.30;4.10;;;;;;;17.72;51.24;99906.30;105267;1255;72517;-39
2024/01/30 10:19:47;;;;;;;4.40;3.60;;;;;;;17.73;51.29;99901.95;105408;1259;61288;-38
2024/01/30 10:22:14;;;;;;;6.50;3.60;;;;;;;17.74;51.29;99904.65;105200;1257;61393;-38
2024/01/30 10:24:41;;;;;;;7.20;4.20;;;;;;;17.75;51.33;99899.27;107065;1254;75557;-37
2024/01/30 10:27:08;;;;;;;4.70;4.00;;;;;;;17.76;51.24;99897.03;105271;1257;67208;-37
2024/01/30 10:29:34;;;;;;;5.10;3.60;;;;;;;17.77;51.32;99890.58;105421;1257;72615;-37
2024/01/30 10:32:02;;;;;;;5.60;4.00;;;;;;;17.79;51.23;99886.33;105322;1262;61264;-37
2024/01/30 10:34:29;;;;;;;8.00;3.90;;;;;;;17.79;51.15;99885.73;105487;1254;61365;-38
2024/01/30 10:37:15;;;;;;;5.00;3.60;;;;;;;17.80;51.27;99885.00;105476;1259;74614;-38
2024/01/30 10:39:43;;;;;;;4.90;3.50;;;;;;;17.81;51.25;99881.69;105519;1258;66926;-37
2024/01/30 10:42:14;;;;;;;7.00;3.70;;;;;;;17.81;51.33;99877.13;105540;1254;73640;-37
2024/01/30 10:44:53;;;;;;;4.40;3.80;;;;;;;17.81;51.34;99868.95;105379;1254;61354;-37
2024/01/30 10:47:26;;;;;;;6.90;3.40;;;;;;;17.81;51.35;99866.89;105816;1254;216993;-37
2024/01/30 10:49:54;;;;;;;5.00;3.60;;;;;;;17.81;51.38;99864.30;105484;1254;75208;-36
2024/01/30 10:52:23;;;;;;;5.30;3.80;;;;;;;17.82;51.41;99859.45;106409;1259;67038;-36
2024/01/30 10:54:50;;;;;;;5.50;3.80;;;;;;;17.82;51.38;99856.69;105266;1261;74436;-37
2024/01/30 10:57:17;;;;;;;5.40;3.60;;;;;;;17.83;51.34;99855.50;105397;1260;61158;-36
2024/01/30 10:59:44;;;;;;;4.90;3.50;;;;;;;17.82;51.40;99849.70;105383;1254;61234;-36
2024/01/30 11:02:11;;;;;;;4.10;3.50;;;;;;;17.83;51.39;99850.95;105526;1254;75696;-37
2024/01/30 11:04:40;;;;;;;6.70;3.30;;;;;;;17.83;51.43;99846.70;105045;1261;67246;-37
2024/01/30 11:07:23;;;;;;;5.10;3.60;;;;;;;17.83;51.42;99843.29;105176;1260;73330;-37
2024/01/30 11:09:51;;;;;;;4.20;3.70;;;;;;;17.83;51.34;99841.52;105009;1254;61389;-37
2024/01/30 11:12:22;;;;;;;5.70;3.90;;;;;;;17.82;51.27;99844.76;105375;1258;61128;-37
2024/01/30 11:14:50;;;;;;;8.90;3.90;;;;;;;17.81;51.07;99844.55;105427;1258;74024;-37
2024/01/30 11:17:17;;;;;;;4.30;3.70;;;;;;;17.80;51.09;99842.63;105518;1259;66232;-37
2024/01/30 11:19:44;;;;;;;5.00;4.00;;;;;;;17.78;50.92;99836.96;105352;1258;73604;-37
2024/01/30 11:22:11;;;;;;;4.90;3.80;;;;;;;17.78;50.73;99836.38;105037;1262;61982;-37